createdAt,value
2018-09-03T00:00:55.970Z,5.20
2018-09-03T00:03:24.606Z,6.60
2018-09-03T00:05:52.251Z,4.40
2018-09-03T00:08:19.826Z,4.40
2018-09-03T00:10:47.847Z,4.40
2018-09-03T00:13:15.439Z,6.40
2018-09-03T00:15:43.035Z,6.40
2018-09-03T00:18:10.607Z,6.00
2018-09-03T00:20:38.633Z,6.60
2018-09-03T00:23:06.258Z,6.00
2018-09-03T00:25:34.698Z,5.60
2018-09-03T00:28:02.278Z,5.20
2018-09-03T00:30:30.247Z,5.60
2018-09-03T00:33:03.462Z,6.20
2018-09-03T00:35:36.014Z,6.00
2018-09-03T00:38:11.322Z,6.20
2018-09-03T00:40:43.848Z,6.60
2018-09-03T00:43:16.496Z,6.00
2018-09-03T00:45:49.439Z,6.00
2018-09-03T00:48:17.059Z,6.00
2018-09-03T00:50:44.632Z,4.80
2018-09-03T00:53:16.460Z,7.00
2018-09-03T00:55:44.309Z,6.60
2018-09-03T00:58:12.002Z,7.00
2018-09-03T01:00:39.573Z,7.20
2018-09-03T01:03:07.122Z,9.00
2018-09-03T01:05:34.749Z,6.80
2018-09-03T01:08:02.363Z,6.00
2018-09-03T01:10:30.363Z,6.80
2018-09-03T01:12:57.943Z,7.00
2018-09-03T01:15:27.283Z,6.60
2018-09-03T01:17:54.875Z,6.20
2018-09-03T01:20:23.546Z,7.00
2018-09-03T01:22:51.130Z,6.80
2018-09-03T01:25:18.733Z,7.00
2018-09-03T01:27:46.823Z,6.60
2018-09-03T01:30:14.430Z,6.20
2018-09-03T01:32:42.771Z,7.00
2018-09-03T01:35:10.985Z,6.40
2018-09-03T01:37:38.977Z,6.40
2018-09-03T01:40:06.603Z,8.60
2018-09-03T01:42:35.391Z,6.00
2018-09-03T01:45:02.965Z,6.40
2018-09-03T01:47:31.828Z,9.00
2018-09-03T01:50:00.262Z,6.60
2018-09-03T01:52:28.463Z,9.00
2018-09-03T01:54:56.088Z,6.80
2018-09-03T01:57:24.022Z,6.80
2018-09-03T01:59:51.616Z,7.80
2018-09-03T02:02:19.222Z,8.60
2018-09-03T02:04:48.972Z,7.20
2018-09-03T02:07:17.594Z,7.00
2018-09-03T02:09:45.178Z,5.60
2018-09-03T02:12:13.019Z,7.00
2018-09-03T02:17:20.350Z,7.00
2018-09-03T02:19:47.965Z,9.00
2018-09-03T02:22:15.569Z,6.80
2018-09-03T02:24:43.652Z,9.20
2018-09-03T02:27:11.312Z,8.60
2018-09-03T02:29:38.923Z,8.20
2018-09-03T02:32:06.523Z,9.00
2018-09-03T02:34:34.120Z,7.40
2018-09-03T02:37:01.763Z,10.80
2018-09-03T02:39:30.071Z,8.20
2018-09-03T02:41:57.942Z,6.80
2018-09-03T02:44:25.655Z,9.20
2018-09-03T02:46:54.063Z,7.00
2018-09-03T02:49:22.075Z,9.20
2018-09-03T02:51:49.699Z,8.80
2018-09-03T02:54:17.275Z,6.20
2018-09-03T02:56:45.299Z,7.80
2018-09-03T02:59:12.886Z,6.20
2018-09-03T03:01:40.457Z,7.80
2018-09-03T03:04:08.466Z,7.80
2018-09-03T03:06:37.205Z,6.60
2018-09-03T03:09:05.448Z,7.80
2018-09-03T03:11:34.212Z,7.80
2018-09-03T03:14:01.843Z,8.60
2018-09-03T03:16:29.448Z,7.00
2018-09-03T03:18:57.466Z,10.40
2018-09-03T03:21:25.079Z,9.00
2018-09-03T03:23:52.719Z,8.40
2018-09-03T03:26:20.320Z,7.40
2018-09-03T03:28:48.351Z,6.80
2018-09-03T03:31:15.950Z,6.60
2018-09-03T03:33:44.236Z,7.00
2018-09-03T03:36:12.144Z,7.00
2018-09-03T03:38:40.452Z,8.20
2018-09-03T03:41:08.087Z,7.80
2018-09-03T03:43:35.696Z,7.00
2018-09-03T03:46:04.636Z,7.40
2018-09-03T03:48:34.024Z,9.20
2018-09-03T03:51:01.643Z,7.00
2018-09-03T03:53:29.618Z,7.80
2018-09-03T03:55:58.187Z,7.40
2018-09-03T03:58:25.834Z,6.80
2018-09-03T04:00:53.757Z,6.60
2018-09-03T04:03:21.423Z,7.00
2018-09-03T04:05:49.031Z,7.00
2018-09-03T04:08:17.103Z,9.00
2018-09-03T04:10:45.593Z,9.60
2018-09-03T04:13:13.224Z,7.80
2018-09-03T04:15:40.870Z,7.80
2018-09-03T04:18:08.991Z,7.40
2018-09-03T04:20:36.603Z,7.00
2018-09-03T04:23:04.363Z,9.00
2018-09-03T04:25:32.008Z,6.60
2018-09-03T04:28:00.027Z,7.80
2018-09-03T04:30:27.747Z,7.80
2018-09-03T04:32:56.192Z,7.00
2018-09-03T04:35:24.328Z,8.60
2018-09-03T04:37:53.659Z,9.00
2018-09-03T04:40:21.281Z,6.60
2018-09-03T04:42:49.382Z,6.60
2018-09-03T04:45:18.381Z,7.00
2018-09-03T04:47:45.968Z,6.00
2018-09-03T04:50:13.903Z,9.80
2018-09-03T04:52:41.514Z,9.60
2018-09-03T04:55:09.147Z,9.80
2018-09-03T04:57:37.199Z,9.20
2018-09-03T05:00:04.840Z,7.00
2018-09-03T05:02:32.508Z,7.00
2018-09-03T05:05:01.034Z,7.00
2018-09-03T05:07:29.266Z,7.00
2018-09-03T05:09:56.887Z,8.60
2018-09-03T05:12:24.871Z,7.00
2018-09-03T05:14:52.520Z,9.20
2018-09-03T05:17:20.309Z,9.00
2018-09-03T05:19:48.979Z,7.80
2018-09-03T05:22:16.600Z,9.40
2018-09-03T05:24:45.566Z,8.60
2018-09-03T05:27:13.697Z,9.00
2018-09-03T05:29:41.417Z,9.40
2018-09-03T05:32:09.041Z,8.60
2018-09-03T05:34:36.703Z,8.60
2018-09-03T05:37:04.377Z,8.20
2018-09-03T05:39:34.003Z,9.20
2018-09-03T05:42:01.634Z,8.20
2018-09-03T05:44:29.883Z,6.60
2018-09-03T05:46:57.818Z,7.00
2018-09-03T05:49:25.667Z,8.20
2018-09-03T05:51:53.520Z,6.80
2018-09-03T05:54:22.173Z,6.60
2018-09-03T05:56:50.772Z,8.20
2018-09-03T05:59:18.493Z,9.00
2018-09-03T06:01:46.541Z,6.00
2018-09-03T06:04:14.251Z,9.40
2018-09-03T06:06:41.843Z,9.00
2018-09-03T06:09:10.693Z,1.80
2018-09-03T06:11:38.361Z,9.00
2018-09-03T06:14:06.782Z,6.00
2018-09-03T06:16:35.375Z,8.60
2018-09-03T06:19:03.062Z,7.00
2018-09-03T06:21:30.681Z,9.60
2018-09-03T06:23:58.751Z,9.00
2018-09-03T06:26:26.368Z,8.80
2018-09-03T06:28:54.991Z,7.00
2018-09-03T06:31:23.077Z,9.80
2018-09-03T06:33:50.702Z,9.00
2018-09-03T06:36:18.346Z,9.00
2018-09-03T06:38:46.471Z,9.00
2018-09-03T06:41:14.295Z,6.20
2018-09-03T06:43:43.527Z,10.40
2018-09-03T06:46:11.600Z,10.40
2018-09-03T06:48:40.438Z,7.40
2018-09-03T06:51:08.874Z,9.20
2018-09-03T06:53:37.809Z,9.00
2018-09-03T06:56:05.446Z,9.40
2018-09-03T06:58:34.347Z,9.40
2018-09-03T07:01:05.176Z,9.40
2018-09-03T07:03:32.778Z,10.40
2018-09-03T07:06:00.364Z,7.00
2018-09-03T07:08:30.304Z,9.80
2018-09-03T07:10:57.969Z,10.00
2018-09-03T07:13:26.339Z,11.40
2018-09-03T07:15:55.360Z,7.40
2018-09-03T07:18:24.695Z,9.20
2018-09-03T07:20:52.371Z,9.00
2018-09-03T07:23:20.458Z,10.00
2018-09-03T07:25:49.031Z,9.00
2018-09-03T07:28:17.509Z,8.60
2018-09-03T07:30:45.574Z,8.20
2018-09-03T07:33:13.206Z,7.40
2018-09-03T07:35:40.904Z,10.00
2018-09-03T07:38:09.605Z,9.00
2018-09-03T07:40:39.175Z,9.80
2018-09-03T07:43:06.828Z,9.60
2018-09-03T07:45:34.799Z,6.60
2018-09-03T07:48:02.471Z,9.80
2018-09-03T07:50:30.782Z,9.40
2018-09-03T07:53:00.372Z,9.60
2018-09-03T07:55:28.022Z,9.00
2018-09-03T07:57:55.690Z,9.80
2018-09-03T08:00:24.416Z,9.60
2018-09-03T08:02:52.075Z,12.60
2018-09-03T08:05:19.726Z,11.20
2018-09-03T08:07:47.759Z,9.00
2018-09-03T08:10:15.360Z,9.20
2018-09-03T08:12:44.936Z,10.60
2018-09-03T08:15:13.016Z,10.60
2018-09-03T08:17:41.936Z,10.20
2018-09-03T08:20:09.726Z,13.00
2018-09-03T08:22:37.622Z,10.80
2018-09-03T08:25:05.232Z,13.40
2018-09-03T08:27:33.915Z,12.00
2018-09-03T08:30:02.350Z,13.80
2018-09-03T08:32:30.005Z,12.20
2018-09-03T08:34:59.330Z,12.20
2018-09-03T08:37:27.559Z,13.40
2018-09-03T08:39:56.367Z,17.60
2018-09-03T08:42:24.770Z,13.00
2018-09-03T08:44:53.859Z,14.20
2018-09-03T08:47:22.475Z,12.40
2018-09-03T08:49:50.151Z,10.80
2018-09-03T08:52:19.368Z,13.80
2018-09-03T08:54:47.331Z,12.40
2018-09-03T08:57:15.696Z,13.80
2018-09-03T08:59:44.496Z,14.20
2018-09-03T09:02:12.743Z,14.20
2018-09-03T09:04:40.421Z,14.20
2018-09-03T09:07:08.582Z,12.00
2018-09-03T09:09:36.302Z,13.40
2018-09-03T09:12:04.896Z,13.80
2018-09-03T09:14:32.862Z,13.80
2018-09-03T09:17:01.572Z,13.00
2018-09-03T09:19:29.231Z,13.80
2018-09-03T09:21:59.204Z,12.60
2018-09-03T09:24:26.977Z,15.60
2018-09-03T09:26:54.579Z,12.60
2018-09-03T09:29:22.659Z,13.80
2018-09-03T09:31:50.367Z,15.00
2018-09-03T09:34:17.980Z,13.40
2018-09-03T09:36:46.079Z,15.80
2018-09-03T09:39:14.582Z,15.60
2018-09-03T09:41:42.298Z,14.20
2018-09-03T09:44:11.221Z,17.20
2018-09-03T09:46:38.911Z,13.40
2018-09-03T09:49:06.550Z,15.80
2018-09-03T09:51:35.510Z,13.20
2018-09-03T09:54:03.170Z,15.80
2018-09-03T09:56:31.742Z,14.40
2018-09-03T09:58:59.798Z,13.00
2018-09-03T10:01:32.321Z,14.20
2018-09-03T10:03:59.937Z,12.40
2018-09-03T10:06:29.972Z,13.00
2018-09-03T10:08:58.772Z,12.80
2018-09-03T10:11:27.900Z,5.00
2018-09-03T10:13:56.567Z,11.40
2018-09-03T10:16:24.205Z,12.20
2018-09-03T10:18:51.865Z,13.80
2018-09-03T10:21:21.832Z,11.80
2018-09-03T10:23:49.440Z,14.20
2018-09-03T10:26:17.107Z,13.80
2018-09-03T10:28:48.216Z,11.20
2018-09-03T10:31:17.605Z,13.00
2018-09-03T10:33:46.207Z,11.60
2018-09-03T10:36:14.842Z,11.00
2018-09-03T10:38:42.482Z,11.40
2018-09-03T10:41:12.250Z,13.80
2018-09-03T10:43:40.783Z,13.00
2018-09-03T10:46:09.468Z,12.80
2018-09-03T10:48:40.549Z,12.80
2018-09-03T10:51:08.794Z,12.00
2018-09-03T10:53:37.342Z,10.80
2018-09-03T10:56:05.458Z,9.60
2018-09-03T10:58:34.031Z,12.00
2018-09-03T11:01:01.748Z,12.60
2018-09-03T11:03:31.270Z,12.00
2018-09-03T11:05:59.738Z,13.40
2018-09-03T11:08:27.395Z,13.20
2018-09-03T11:10:55.373Z,10.40
2018-09-03T11:13:24.262Z,9.40
2018-09-03T11:15:51.908Z,5.60
2018-09-03T11:18:21.366Z,12.80
2018-09-03T11:20:49.064Z,12.20
2018-09-03T11:23:16.727Z,12.00
2018-09-03T11:25:44.882Z,13.20
2018-09-03T11:28:13.375Z,11.60
2018-09-03T11:30:42.859Z,12.00
2018-09-03T11:33:12.282Z,12.40
2018-09-03T11:35:41.656Z,14.40
2018-09-03T11:38:09.346Z,14.00
2018-09-03T11:40:37.731Z,13.20
2018-09-03T11:43:05.426Z,13.20
2018-09-03T11:45:33.069Z,12.40
2018-09-03T11:48:01.152Z,12.60
2018-09-03T11:50:28.839Z,15.40
2018-09-03T11:53:00.425Z,15.00
2018-09-03T11:55:28.475Z,15.80
2018-09-03T11:57:58.240Z,16.40
2018-09-03T12:00:28.639Z,15.00
2018-09-03T12:02:58.284Z,15.20
2018-09-03T12:05:29.530Z,15.00
2018-09-03T12:08:00.946Z,16.60
2018-09-03T12:10:30.555Z,15.40
2018-09-03T12:12:58.301Z,17.40
2018-09-03T12:15:39.526Z,16.40
2018-09-03T12:18:07.756Z,14.20
2018-09-03T12:20:36.184Z,15.40
2018-09-03T12:25:25.552Z,15.80
2018-09-03T12:27:53.244Z,16.60
2018-09-03T12:30:20.991Z,18.00
2018-09-03T12:32:50.542Z,16.00
2018-09-03T12:35:18.206Z,13.80
2018-09-03T12:37:45.825Z,15.40
2018-09-03T12:40:14.094Z,16.60
2018-09-03T12:42:42.261Z,16.60
2018-09-03T12:45:09.937Z,18.00
2018-09-03T12:47:39.369Z,16.60
2018-09-03T12:50:07.097Z,16.40
2018-09-03T12:52:36.450Z,15.80
2018-09-03T12:55:05.607Z,16.60
2018-09-03T12:57:36.310Z,16.60
2018-09-03T13:00:05.669Z,18.60
2018-09-03T13:02:39.412Z,17.20
2018-09-03T13:05:04.961Z,18.20
2018-09-03T13:07:33.251Z,18.00
2018-09-03T13:10:01.337Z,17.00
2018-09-03T13:12:29.136Z,16.80
2018-09-03T13:14:59.430Z,17.60
2018-09-03T13:17:27.436Z,17.20
2018-09-03T13:19:56.585Z,16.20
2018-09-03T13:22:24.248Z,19.20
2018-09-03T13:24:52.292Z,16.60
2018-09-03T13:27:20.033Z,17.00
2018-09-03T13:29:48.482Z,19.20
2018-09-03T13:32:16.450Z,18.00
2018-09-03T13:34:45.164Z,19.80
2018-09-03T13:37:14.893Z,21.00
2018-09-03T13:39:42.921Z,19.00
2018-09-03T13:42:10.641Z,22.80
2018-09-03T13:44:38.520Z,20.00
2018-09-03T13:47:06.532Z,21.60
2018-09-03T13:49:35.122Z,21.60
2018-09-03T13:52:02.999Z,22.20
2018-09-03T13:54:30.797Z,21.40
2018-09-03T13:56:58.486Z,21.80
2018-09-03T13:59:26.476Z,23.00
2018-09-03T14:01:55.398Z,21.80
2018-09-03T14:04:25.518Z,20.60
2018-09-03T14:06:54.230Z,24.20
2018-09-03T14:09:22.016Z,23.40
2018-09-03T14:11:51.268Z,24.20
2018-09-03T14:14:20.056Z,21.80
2018-09-03T14:16:48.598Z,23.60
2018-09-03T14:19:17.926Z,26.00
2018-09-03T14:21:46.055Z,20.80
2018-09-03T14:24:15.325Z,16.20
2018-09-03T14:26:43.458Z,20.40
2018-09-03T14:31:43.739Z,24.60
2018-09-03T14:34:12.737Z,20.00
2018-09-03T14:36:45.619Z,23.00
2018-09-03T14:39:13.699Z,23.00
2018-09-03T14:41:42.422Z,23.20
2018-09-03T14:44:13.320Z,23.20
2018-09-03T14:46:43.474Z,25.00
2018-09-03T14:49:11.570Z,23.80
2018-09-03T14:51:40.342Z,23.80
2018-09-03T14:54:08.192Z,22.00
2018-09-03T14:56:36.256Z,21.00
2018-09-03T14:59:06.095Z,23.80
2018-09-03T15:01:36.138Z,23.20
2018-09-03T15:04:04.512Z,25.60
2018-09-03T15:06:33.718Z,22.60
2018-09-03T15:09:02.230Z,24.20
2018-09-03T15:11:31.378Z,26.60
2018-09-03T15:14:00.830Z,24.80
2018-09-03T15:16:34.454Z,23.00
2018-09-03T15:19:04.617Z,25.60
2018-09-03T15:21:34.100Z,25.20
2018-09-03T15:24:03.964Z,15.40
2018-09-03T15:26:32.659Z,26.00
2018-09-03T15:29:00.906Z,25.60
2018-09-03T15:31:28.590Z,23.60
2018-09-03T15:33:56.559Z,18.80
2018-09-03T15:36:24.503Z,24.60
2018-09-03T15:38:53.295Z,21.20
2018-09-03T15:41:22.558Z,23.80
2018-09-03T15:43:50.854Z,23.40
2018-09-03T15:46:19.269Z,24.80
2018-09-03T15:48:49.576Z,26.60
2018-09-03T15:51:18.228Z,18.80
2018-09-03T15:53:50.706Z,28.00
2018-09-03T15:56:18.879Z,22.00
2018-09-03T15:58:47.116Z,25.60
2018-09-03T16:01:16.593Z,21.40
2018-09-03T16:03:45.237Z,22.80
2018-09-03T16:06:12.920Z,25.00
2018-09-03T16:08:41.349Z,22.20
2018-09-03T16:11:09.440Z,26.80
2018-09-03T16:13:38.665Z,27.20
2018-09-03T16:16:06.340Z,23.60
2018-09-03T16:18:34.575Z,23.40
2018-09-03T16:21:02.652Z,23.40
2018-09-03T16:23:30.461Z,24.00
2018-09-03T16:25:58.668Z,24.80
2018-09-03T16:28:27.825Z,25.00
2018-09-03T16:30:56.559Z,22.00
2018-09-03T16:33:25.010Z,26.40
2018-09-03T16:35:52.837Z,22.00
2018-09-03T16:38:20.606Z,23.60
2018-09-03T16:40:49.946Z,22.00
2018-09-03T16:43:18.586Z,25.20
2018-09-03T16:45:46.388Z,25.00
2018-09-03T16:48:14.409Z,25.00
2018-09-03T16:50:42.900Z,23.00
2018-09-03T16:53:11.624Z,23.60
2018-09-03T16:55:40.839Z,25.20
2018-09-03T16:58:12.459Z,22.00
2018-09-03T17:00:41.049Z,21.40
2018-09-03T17:03:09.225Z,20.60
2018-09-03T17:05:36.940Z,24.00
2018-09-03T17:08:04.724Z,26.20
2018-09-03T17:10:34.887Z,22.00
2018-09-03T17:13:02.742Z,20.40
2018-09-03T17:15:31.049Z,25.80
2018-09-03T17:18:00.509Z,26.20
2018-09-03T17:20:28.421Z,22.80
2018-09-03T17:22:58.389Z,23.00
2018-09-03T17:25:26.599Z,22.80
2018-09-03T17:27:55.378Z,25.00
2018-09-03T17:30:24.227Z,24.00
2018-09-03T17:32:51.983Z,23.60
2018-09-03T17:35:19.693Z,22.80
2018-09-03T17:37:51.444Z,22.20
2018-09-03T17:40:19.072Z,23.20
2018-09-03T17:42:46.762Z,25.20
2018-09-03T17:45:14.907Z,26.20
2018-09-03T17:47:42.640Z,23.20
2018-09-03T17:50:11.827Z,26.00
2018-09-03T17:52:39.936Z,24.80
2018-09-03T17:55:08.601Z,24.00
2018-09-03T17:57:36.326Z,24.60
2018-09-03T18:00:07.031Z,27.60
2018-09-03T18:02:34.845Z,26.40
2018-09-03T18:05:02.644Z,24.20
2018-09-03T18:07:31.591Z,22.60
2018-09-03T18:10:01.012Z,24.20
2018-09-03T18:12:28.654Z,25.00
2018-09-03T18:14:58.572Z,23.60
2018-09-03T18:17:29.266Z,27.00
2018-09-03T18:19:56.930Z,23.00
2018-09-03T18:22:24.939Z,27.20
2018-09-03T18:24:53.162Z,27.80
2018-09-03T18:27:21.423Z,26.20
2018-09-03T18:29:49.456Z,27.00
2018-09-03T18:32:18.326Z,24.00
2018-09-03T18:34:47.364Z,27.00
2018-09-03T18:37:15.337Z,24.00
2018-09-03T18:39:43.667Z,25.20
2018-09-03T18:42:11.298Z,25.80
2018-09-03T18:44:40.364Z,28.20
2018-09-03T18:47:09.187Z,26.40
2018-09-03T18:49:37.531Z,21.80
2018-09-03T18:52:05.542Z,27.80
2018-09-03T18:54:33.258Z,26.80
2018-09-03T18:57:01.511Z,28.20
2018-09-03T18:59:30.343Z,27.20
2018-09-03T19:01:58.004Z,28.20
2018-09-03T19:04:25.671Z,27.00
2018-09-03T19:06:53.805Z,26.20
2018-09-03T19:09:22.982Z,24.80
2018-09-03T19:11:51.731Z,26.00
2018-09-03T19:14:21.442Z,23.20
2018-09-03T19:16:50.509Z,22.60
2018-09-03T19:19:19.747Z,26.40
2018-09-03T19:21:49.379Z,23.80
2018-09-03T19:24:17.070Z,28.80
2018-09-03T19:26:45.547Z,24.00
2018-09-03T19:29:15.604Z,25.00
2018-09-03T19:31:49.221Z,24.20
2018-09-03T19:34:17.666Z,23.00
2018-09-03T19:36:47.411Z,28.40
2018-09-03T19:39:15.843Z,24.80
2018-09-03T19:41:43.441Z,25.80
2018-09-03T19:44:14.221Z,27.60
2018-09-03T19:46:43.728Z,25.60
2018-09-03T19:49:11.740Z,23.00
2018-09-03T19:51:40.698Z,25.40
2018-09-03T19:54:09.731Z,25.80
2018-09-03T19:56:38.580Z,26.20
2018-09-03T19:59:07.711Z,28.60
2018-09-03T20:01:35.475Z,27.80
2018-09-03T20:04:03.193Z,26.80
2018-09-03T20:06:32.345Z,27.00
2018-09-03T20:09:00.083Z,27.00
2018-09-03T20:11:29.609Z,27.80
2018-09-03T20:13:57.783Z,21.60
2018-09-03T20:16:25.452Z,22.20
2018-09-03T20:18:54.470Z,28.40
2018-09-03T20:21:22.525Z,27.40
2018-09-03T20:23:51.242Z,26.20
2018-09-03T20:26:19.877Z,25.40
2018-09-03T20:28:48.769Z,23.60
2018-09-03T20:31:16.572Z,28.20
2018-09-03T20:33:45.436Z,28.00
2018-09-03T20:36:13.730Z,22.00
2018-09-03T20:38:43.627Z,22.00
2018-09-03T20:41:12.967Z,25.80
2018-09-03T20:43:44.724Z,25.60
2018-09-03T20:46:13.677Z,29.20
2018-09-03T20:48:41.758Z,24.20
2018-09-03T20:51:09.775Z,26.20
2018-09-03T20:53:41.244Z,23.00
2018-09-03T20:56:11.942Z,23.80
2018-09-03T20:58:43.729Z,23.00
2018-09-03T21:01:11.447Z,23.60
2018-09-03T21:03:53.258Z,17.00
2018-09-03T21:06:23.372Z,25.40
2018-09-03T21:08:51.065Z,22.40
2018-09-03T21:11:19.213Z,27.40
2018-09-03T21:13:48.278Z,28.00
2018-09-03T21:16:16.006Z,24.00
2018-09-03T21:18:43.703Z,28.40
2018-09-03T21:21:11.895Z,25.40
2018-09-03T21:23:42.480Z,25.40
2018-09-03T21:26:10.131Z,24.00
2018-09-03T21:28:38.770Z,22.60
2018-09-03T21:31:06.427Z,26.00
2018-09-03T21:33:34.136Z,21.80
2018-09-03T21:36:03.133Z,25.20
2018-09-03T21:38:32.044Z,24.20
2018-09-03T21:41:00.490Z,27.60
2018-09-03T21:43:29.386Z,26.20
2018-09-03T21:45:56.990Z,27.40
2018-09-03T21:48:25.355Z,21.60
2018-09-03T21:50:54.321Z,20.40
2018-09-03T21:53:24.697Z,27.00
2018-09-03T21:55:52.314Z,24.60
2018-09-03T21:58:21.207Z,26.80
2018-09-03T22:00:48.936Z,22.80
2018-09-03T22:03:16.612Z,22.40
2018-09-03T22:05:44.662Z,22.20
2018-09-03T22:08:12.966Z,24.60
2018-09-03T22:10:41.235Z,24.80
2018-09-03T22:13:09.175Z,23.20
2018-09-03T22:15:37.001Z,27.40
2018-09-03T22:18:04.764Z,26.20
2018-09-03T22:20:32.843Z,26.20
2018-09-03T22:23:00.519Z,29.20
2018-09-03T22:25:28.248Z,27.40
2018-09-03T22:27:56.287Z,25.00
2018-09-03T22:30:23.991Z,24.20
2018-09-03T22:32:51.689Z,25.00
2018-09-03T22:35:19.689Z,28.60
2018-09-03T22:37:47.313Z,25.80
2018-09-03T22:40:15.633Z,24.00
2018-09-03T22:42:43.675Z,25.40
2018-09-03T22:45:11.318Z,28.80
2018-09-03T22:47:38.979Z,28.40
2018-09-03T22:50:07.029Z,28.00
2018-09-03T22:52:35.701Z,30.00
2018-09-03T22:55:03.400Z,28.00
2018-09-03T22:57:31.425Z,29.60
2018-09-03T22:59:59.019Z,27.40
2018-09-03T23:02:26.647Z,28.80
2018-09-03T23:04:55.288Z,27.20
2018-09-03T23:07:22.920Z,26.60
2018-09-03T23:09:50.591Z,28.20
2018-09-03T23:12:18.711Z,27.60
2018-09-03T23:14:46.455Z,30.60
2018-09-03T23:17:14.080Z,28.80
2018-09-03T23:19:42.071Z,28.80
2018-09-03T23:22:09.699Z,28.60
2018-09-03T23:24:37.611Z,30.00
2018-09-03T23:27:06.735Z,27.60
2018-09-03T23:29:34.403Z,26.60
2018-09-03T23:32:03.228Z,29.20
2018-09-03T23:34:30.895Z,29.00
2018-09-03T23:36:58.523Z,28.80
2018-09-03T23:39:26.658Z,31.00
2018-09-03T23:41:54.254Z,27.40
2018-09-03T23:44:22.398Z,29.60
2018-09-03T23:46:50.551Z,30.00
2018-09-03T23:49:18.503Z,30.00
2018-09-03T23:51:46.104Z,29.60
2018-09-03T23:54:13.697Z,26.20
2018-09-03T23:56:41.367Z,24.80
2018-09-03T23:59:08.962Z,25.80
